createdAt,value
2022-11-14T00:03:11.054Z,0.00
2022-11-14T00:08:22.516Z,0.40
2022-11-14T00:13:25.727Z,0.40
2022-11-14T00:18:29.097Z,0.20
2022-11-14T00:23:33.954Z,0.60
2022-11-14T00:28:37.154Z,0.32
2022-11-14T00:33:40.326Z,0.60
2022-11-14T00:38:44.906Z,0.52
2022-11-14T00:43:48.091Z,0.60
2022-11-14T00:48:51.241Z,0.93
2022-11-14T00:53:55.794Z,0.70
2022-11-14T00:58:58.905Z,0.80
2022-11-14T01:04:02.206Z,0.45
2022-11-14T01:09:06.862Z,0.70
2022-11-14T01:19:12.944Z,0.80
2022-11-14T01:24:17.449Z,0.70
2022-11-14T01:29:20.557Z,0.90
2022-11-14T01:34:23.852Z,0.95
2022-11-14T01:39:29.048Z,1.10
2022-11-14T01:44:49.793Z,0.88
2022-11-14T01:49:58.992Z,1.20
2022-11-14T01:55:07.530Z,1.10
2022-11-14T02:00:13.541Z,0.93
2022-11-14T02:05:19.143Z,0.98
2022-11-14T02:10:23.921Z,1.08
2022-11-14T02:20:36.477Z,1.40
2022-11-14T02:25:40.642Z,1.60
2022-11-14T02:30:43.769Z,1.90
2022-11-14T02:35:48.345Z,1.40
2022-11-14T02:40:51.468Z,1.23
2022-11-14T02:45:54.780Z,0.90
2022-11-14T02:50:59.323Z,1.30
2022-11-14T02:56:02.492Z,1.10
2022-11-14T03:01:20.235Z,1.10
2022-11-14T03:06:25.769Z,0.80
2022-11-14T03:11:29.051Z,0.93
2022-11-14T03:16:32.239Z,1.30
2022-11-14T03:21:36.817Z,0.80
2022-11-14T03:26:39.959Z,0.98
2022-11-14T03:31:43.106Z,0.80
2022-11-14T03:36:47.688Z,0.82
2022-11-14T03:41:50.844Z,1.05
2022-11-14T03:46:53.984Z,0.95
2022-11-14T03:51:58.521Z,0.88
2022-11-14T03:57:01.640Z,0.70
2022-11-14T04:02:04.776Z,1.00
2022-11-14T04:07:09.387Z,1.08
2022-11-14T04:12:15.730Z,0.55
2022-11-14T04:17:19.274Z,1.20
2022-11-14T04:22:23.888Z,1.17
2022-11-14T04:27:27.158Z,0.90
2022-11-14T04:32:30.331Z,1.48
2022-11-14T04:37:34.874Z,1.17
2022-11-14T04:42:38.025Z,1.13
2022-11-14T04:47:42.849Z,1.05
2022-11-14T04:57:55.447Z,1.80
2022-11-14T05:03:00.386Z,1.55
2022-11-14T05:08:05.094Z,3.58
2022-11-14T05:13:08.221Z,2.53
2022-11-14T05:18:11.368Z,1.40
2022-11-14T05:23:20.989Z,1.50
2022-11-14T05:28:24.111Z,1.55
2022-11-14T05:33:27.268Z,1.85
2022-11-14T05:38:32.339Z,1.60
2022-11-14T05:43:35.906Z,1.20
2022-11-14T05:48:39.700Z,2.00
2022-11-14T05:53:44.233Z,2.50
2022-11-14T05:58:47.410Z,2.00
2022-11-14T06:03:50.586Z,2.10
2022-11-14T06:08:55.196Z,2.20
2022-11-14T06:13:58.319Z,2.38
2022-11-14T06:19:01.458Z,2.33
2022-11-14T06:24:06.838Z,2.10
2022-11-14T06:29:11.393Z,2.72
2022-11-14T06:34:14.651Z,3.50
2022-11-14T06:39:19.169Z,1.80
2022-11-14T06:44:26.418Z,2.42
2022-11-14T06:49:36.586Z,3.53
2022-11-14T06:54:44.780Z,1.63
2022-11-14T06:59:48.209Z,1.95
2022-11-14T07:04:51.333Z,1.80
2022-11-14T07:09:56.711Z,1.70
2022-11-14T07:14:59.899Z,2.00
2022-11-14T07:20:03.097Z,1.80
2022-11-14T07:25:08.737Z,2.10
2022-11-14T07:30:12.795Z,2.45
2022-11-14T07:35:16.098Z,3.93
2022-11-14T07:40:20.852Z,5.30
2022-11-14T07:45:23.994Z,4.88
2022-11-14T07:50:28.984Z,4.65
2022-11-14T07:55:33.570Z,4.28
2022-11-14T08:00:36.853Z,3.10
2022-11-14T08:05:40.137Z,3.67
2022-11-14T08:10:44.696Z,3.08
2022-11-14T08:15:47.836Z,3.45
2022-11-14T08:20:50.970Z,3.60
2022-11-14T08:25:55.650Z,3.42
2022-11-14T08:31:01.429Z,2.63
2022-11-14T08:36:05.637Z,2.67
2022-11-14T08:41:10.210Z,2.47
2022-11-14T08:46:13.339Z,2.70
2022-11-14T08:51:16.480Z,2.33
2022-11-14T08:56:21.047Z,2.35
2022-11-14T09:01:24.207Z,1.80
2022-11-14T09:06:27.390Z,1.80
2022-11-14T09:11:31.902Z,1.70
2022-11-14T09:16:35.062Z,1.63
2022-11-14T09:21:38.210Z,1.75
2022-11-14T09:26:42.756Z,1.40
2022-11-14T09:31:45.944Z,1.60
2022-11-14T09:36:49.141Z,1.58
2022-11-14T09:42:09.869Z,1.50
2022-11-14T09:47:21.440Z,1.77
2022-11-14T09:52:32.324Z,1.90
2022-11-14T09:57:36.921Z,2.17
2022-11-14T10:02:47.605Z,1.67
2022-11-14T10:08:05.222Z,1.40
2022-11-14T10:13:25.242Z,1.45
2022-11-14T10:18:42.170Z,1.33
2022-11-14T10:23:56.262Z,1.70
2022-11-14T10:29:23.962Z,1.63
2022-11-14T10:34:32.376Z,1.55
2022-11-14T10:39:41.983Z,1.40
2022-11-14T10:44:52.385Z,1.70
2022-11-14T10:50:00.212Z,1.25
2022-11-14T10:55:08.717Z,1.17
2022-11-14T11:00:16.950Z,1.05
2022-11-14T11:05:23.092Z,1.90
2022-11-14T11:10:43.698Z,1.58
2022-11-14T11:29:08.994Z,2.40
2022-11-14T11:34:12.145Z,2.35
2022-11-14T11:39:24.991Z,2.50
2022-11-14T11:44:36.464Z,2.17
2022-11-14T11:49:52.878Z,2.67
2022-11-14T11:55:04.743Z,2.67
2022-11-14T12:00:17.524Z,2.50
2022-11-14T12:05:31.012Z,2.20
2022-11-14T12:10:37.620Z,2.03
2022-11-14T12:15:53.898Z,1.80
2022-11-14T12:21:12.509Z,2.03
2022-11-14T12:26:34.301Z,1.75
2022-11-14T12:31:40.756Z,1.83
2022-11-14T12:36:46.703Z,1.60
2022-11-14T12:41:50.022Z,1.35
2022-11-14T12:47:20.047Z,1.40
2022-11-14T12:52:48.875Z,1.50
2022-11-14T12:58:04.816Z,1.38
2022-11-14T13:03:34.149Z,1.50
2022-11-14T13:09:03.826Z,1.50
2022-11-14T13:14:27.118Z,1.30
2022-11-14T13:19:49.093Z,1.45
2022-11-14T13:25:21.043Z,1.42
2022-11-14T13:30:53.758Z,1.25
2022-11-14T13:36:05.692Z,1.00
2022-11-14T13:41:37.223Z,1.20
2022-11-14T13:47:09.605Z,1.48
2022-11-14T13:52:15.378Z,1.60
2022-11-14T13:57:30.898Z,1.65
2022-11-14T14:02:57.915Z,1.60
2022-11-14T14:08:15.689Z,2.00
2022-11-14T14:13:32.041Z,2.03
2022-11-14T14:18:46.494Z,1.80
2022-11-14T14:24:00.941Z,1.97
2022-11-14T14:29:17.087Z,2.63
2022-11-14T14:34:25.126Z,2.30
2022-11-14T14:39:30.468Z,2.83
2022-11-14T14:44:38.677Z,1.88
2022-11-14T14:49:42.181Z,2.30
2022-11-14T14:54:56.131Z,1.95
2022-11-14T15:00:02.730Z,2.53
2022-11-14T15:05:07.246Z,3.35
2022-11-14T15:15:26.441Z,2.58
2022-11-14T15:20:31.046Z,2.25
2022-11-14T15:25:35.749Z,2.20
2022-11-14T15:30:39.301Z,2.47
2022-11-14T15:35:42.699Z,3.03
2022-11-14T15:41:11.777Z,3.75
2022-11-14T15:46:42.572Z,5.95
2022-11-14T15:51:48.624Z,4.72
2022-11-14T15:56:53.614Z,3.67
2022-11-14T16:02:00.285Z,3.90
2022-11-14T16:07:03.748Z,3.58
2022-11-14T16:12:09.091Z,3.60
2022-11-14T16:17:15.150Z,3.28
2022-11-14T16:22:19.452Z,2.85
2022-11-14T16:27:24.001Z,2.60
2022-11-14T16:32:28.424Z,2.85
2022-11-14T16:37:31.593Z,2.67
2022-11-14T16:42:36.172Z,3.08
2022-11-14T16:47:40.417Z,3.40
2022-11-14T16:52:43.566Z,3.65
2022-11-14T16:57:49.119Z,4.95
2022-11-14T17:02:52.289Z,4.72
2022-11-14T17:07:57.286Z,5.43
2022-11-14T17:13:01.815Z,4.05
2022-11-14T17:18:05.576Z,4.70
2022-11-14T17:23:08.736Z,5.13
2022-11-14T17:28:13.868Z,5.10
2022-11-14T17:33:17.044Z,5.78
2022-11-14T17:38:20.178Z,5.35
2022-11-14T17:43:24.724Z,5.13
2022-11-14T17:48:28.028Z,5.63
2022-11-14T17:53:31.565Z,5.68
2022-11-14T17:58:36.370Z,6.55
2022-11-14T18:03:39.759Z,6.68
2022-11-14T18:08:43.272Z,7.53
2022-11-14T18:13:47.808Z,8.20
2022-11-14T18:18:52.145Z,7.35
2022-11-14T18:23:56.813Z,13.88
2022-11-14T18:39:08.958Z,17.75
2022-11-14T18:44:13.562Z,13.50
2022-11-14T18:49:16.755Z,11.70
2022-11-14T18:54:20.133Z,11.65
2022-11-14T18:59:24.797Z,14.23
2022-11-14T19:04:28.076Z,10.80
2022-11-14T19:09:31.551Z,17.83
2022-11-14T19:14:37.062Z,18.65
2022-11-14T19:19:40.322Z,16.50
2022-11-14T19:24:43.767Z,15.07
2022-11-14T19:29:48.369Z,16.70
2022-11-14T19:34:51.626Z,15.57
2022-11-14T19:39:55.700Z,15.00
2022-11-14T19:45:00.355Z,14.30
2022-11-14T19:50:03.557Z,13.82
2022-11-14T19:55:07.068Z,14.23
2022-11-14T20:00:12.729Z,13.30
2022-11-14T20:05:16.084Z,13.52
2022-11-14T20:10:19.377Z,12.80
2022-11-14T20:15:24.015Z,12.20
2022-11-14T20:20:27.171Z,10.07
2022-11-14T20:25:30.333Z,9.88
2022-11-14T20:30:35.334Z,10.00
2022-11-14T20:35:39.055Z,9.65
2022-11-14T20:40:42.389Z,10.77
2022-11-14T20:45:56.475Z,10.57
2022-11-14T20:51:05.818Z,11.07
2022-11-14T20:56:09.164Z,10.75
2022-11-14T21:01:14.423Z,10.27
2022-11-14T21:06:18.249Z,11.35
2022-11-14T21:11:22.692Z,6.53
2022-11-14T21:16:31.818Z,5.75
2022-11-14T21:21:37.231Z,5.82
2022-11-14T21:26:41.327Z,5.07
2022-11-14T21:31:47.306Z,3.37
2022-11-14T21:36:50.592Z,6.40
2022-11-14T21:41:54.422Z,5.53
2022-11-14T21:46:59.059Z,5.00
2022-11-14T21:52:02.349Z,4.47
2022-11-14T21:57:09.787Z,3.25
2022-11-14T22:02:32.613Z,3.70
2022-11-14T22:07:35.877Z,2.97
2022-11-14T22:12:39.308Z,2.83
2022-11-14T22:17:43.914Z,3.00
2022-11-14T22:22:47.143Z,2.92
2022-11-14T22:27:50.376Z,2.92
2022-11-14T22:32:55.002Z,3.25
2022-11-14T22:37:58.407Z,2.97
2022-11-14T22:43:01.814Z,3.53
2022-11-14T22:48:06.745Z,3.15
2022-11-14T22:53:10.007Z,4.05
2022-11-14T22:58:13.213Z,2.83
2022-11-14T23:03:20.663Z,2.78
2022-11-14T23:08:24.162Z,2.28
2022-11-14T23:13:27.578Z,1.85
2022-11-14T23:18:32.301Z,1.40
2022-11-14T23:23:35.590Z,1.55
2022-11-14T23:28:39.613Z,2.08
2022-11-14T23:33:44.273Z,0.97
2022-11-14T23:38:47.574Z,1.60
2022-11-14T23:43:50.844Z,0.93
2022-11-14T23:48:55.671Z,1.30
2022-11-14T23:59:02.161Z,1.00
